createdAt,value
2023-03-22T00:01:25.101Z,10.17
2023-03-22T00:03:52.701Z,8.30
2023-03-22T00:06:19.887Z,10.83
2023-03-22T00:08:50.614Z,15.50
2023-03-22T00:11:17.917Z,8.43
2023-03-22T00:13:46.853Z,9.20
2023-03-22T00:16:14.849Z,12.33
2023-03-22T00:18:42.001Z,11.37
2023-03-22T00:21:13.080Z,13.03
2023-03-22T00:23:40.196Z,9.43
2023-03-22T00:26:08.013Z,9.73
2023-03-22T00:28:35.711Z,8.63
2023-03-22T00:31:03.417Z,10.20
2023-03-22T00:33:31.239Z,8.53
2023-03-22T00:36:06.473Z,10.90
2023-03-22T00:38:43.731Z,11.33
2023-03-22T00:41:16.462Z,10.63
2023-03-22T00:43:44.123Z,10.77
2023-03-22T00:46:11.823Z,12.03
2023-03-22T00:48:38.985Z,9.80
2023-03-22T00:51:05.983Z,10.77
2023-03-22T00:53:33.075Z,9.57
2023-03-22T00:56:00.195Z,8.30
2023-03-22T00:58:26.940Z,12.27
2023-03-22T01:00:53.654Z,7.23
2023-03-22T01:03:21.831Z,9.47
2023-03-22T01:05:49.301Z,9.60
2023-03-22T01:08:16.731Z,8.90
2023-03-22T01:10:44.535Z,10.37
2023-03-22T01:13:12.204Z,9.03
2023-03-22T01:15:39.157Z,8.43
2023-03-22T01:18:05.995Z,6.87
2023-03-22T01:20:33.246Z,9.33
2023-03-22T01:23:00.003Z,9.90
2023-03-22T01:25:26.646Z,9.07
2023-03-22T01:27:53.939Z,8.73
2023-03-22T01:30:20.656Z,6.17
2023-03-22T01:32:47.288Z,6.67
2023-03-22T01:35:13.931Z,8.20
2023-03-22T01:37:40.624Z,6.37
2023-03-22T01:40:07.940Z,8.07
2023-03-22T01:42:34.624Z,9.10
2023-03-22T01:45:13.485Z,7.20
2023-03-22T01:47:52.055Z,6.53
2023-03-22T01:50:20.417Z,7.77
2023-03-22T01:52:49.470Z,8.20
2023-03-22T01:55:18.223Z,6.43
2023-03-22T01:57:45.419Z,8.73
2023-03-22T02:00:15.550Z,7.60
2023-03-22T02:02:43.575Z,7.43
2023-03-22T02:05:12.230Z,6.13
2023-03-22T02:07:41.242Z,6.63
2023-03-22T02:10:26.205Z,8.23
2023-03-22T02:13:11.640Z,7.40
2023-03-22T02:15:50.138Z,7.53
2023-03-22T02:18:48.498Z,7.77
2023-03-22T02:21:57.042Z,6.80
2023-03-22T02:25:12.673Z,7.33
2023-03-22T02:28:04.933Z,6.13
2023-03-22T02:30:49.903Z,6.80
2023-03-22T02:33:53.899Z,6.40
2023-03-22T02:36:43.174Z,6.40
2023-03-22T02:39:30.360Z,7.00
2023-03-22T02:42:34.058Z,6.53
2023-03-22T02:45:03.671Z,5.73
2023-03-22T02:48:09.861Z,6.00
2023-03-22T02:51:00.357Z,6.00
2023-03-22T02:53:36.866Z,8.30
2023-03-22T02:56:05.799Z,6.63
2023-03-22T02:58:38.126Z,8.47
2023-03-22T03:01:09.589Z,5.73
2023-03-22T03:03:37.801Z,9.33
2023-03-22T03:06:10.489Z,6.70
2023-03-22T03:08:38.641Z,7.43
2023-03-22T03:11:05.474Z,7.13
2023-03-22T03:13:32.102Z,7.57
2023-03-22T03:16:01.264Z,7.00
2023-03-22T03:18:46.117Z,6.17
2023-03-22T03:21:38.263Z,7.43
2023-03-22T03:24:27.007Z,6.60
2023-03-22T03:27:17.609Z,6.27
2023-03-22T03:30:00.454Z,6.47
2023-03-22T03:32:37.880Z,6.30
2023-03-22T03:35:10.936Z,8.57
2023-03-22T03:37:44.775Z,8.90
2023-03-22T03:40:26.127Z,7.83
2023-03-22T03:42:55.484Z,7.83
2023-03-22T03:45:23.308Z,7.63
2023-03-22T03:47:56.995Z,6.87
2023-03-22T03:50:26.264Z,6.40
2023-03-22T03:52:54.892Z,6.93
2023-03-22T03:55:22.538Z,6.33
2023-03-22T03:57:49.277Z,6.13
2023-03-22T04:00:16.905Z,6.97
2023-03-22T04:02:44.505Z,7.87
2023-03-22T04:05:12.359Z,6.10
2023-03-22T04:07:39.390Z,6.47
2023-03-22T04:10:06.740Z,6.87
2023-03-22T04:12:33.622Z,6.13
2023-03-22T04:15:00.628Z,6.63
2023-03-22T04:17:29.244Z,8.00
2023-03-22T04:19:56.521Z,6.30
2023-03-22T04:22:24.996Z,8.73
2023-03-22T04:24:51.633Z,7.03
2023-03-22T04:27:19.648Z,5.93
2023-03-22T04:29:50.709Z,7.17
2023-03-22T04:32:22.846Z,6.40
2023-03-22T04:34:50.461Z,8.23
2023-03-22T04:37:17.577Z,5.97
2023-03-22T04:39:44.567Z,8.40
2023-03-22T04:42:11.452Z,8.20
2023-03-22T04:44:38.159Z,6.37
2023-03-22T04:47:04.819Z,6.43
2023-03-22T04:49:31.611Z,5.63
2023-03-22T04:51:58.791Z,5.70
2023-03-22T04:54:25.755Z,5.83
2023-03-22T04:56:52.800Z,5.57
2023-03-22T04:59:20.515Z,6.17
2023-03-22T05:01:48.278Z,7.10
2023-03-22T05:04:16.341Z,6.13
2023-03-22T05:06:43.018Z,5.57
2023-03-22T05:09:10.173Z,8.83
2023-03-22T05:11:37.112Z,5.33
2023-03-22T05:14:04.290Z,6.70
2023-03-22T05:16:31.033Z,5.30
2023-03-22T05:18:57.766Z,8.93
2023-03-22T05:21:28.622Z,5.30
2023-03-22T05:23:57.582Z,6.47
2023-03-22T05:26:26.270Z,5.33
2023-03-22T05:28:54.282Z,5.53
2023-03-22T05:31:22.004Z,6.63
2023-03-22T05:33:52.349Z,6.80
2023-03-22T05:36:20.415Z,5.10
2023-03-22T05:38:47.046Z,6.17
2023-03-22T05:41:14.693Z,5.37
2023-03-22T05:43:42.062Z,5.73
2023-03-22T05:46:10.995Z,6.53
2023-03-22T05:48:39.252Z,5.30
2023-03-22T05:51:13.395Z,5.63
2023-03-22T05:53:40.263Z,7.93
2023-03-22T05:56:09.849Z,8.07
2023-03-22T05:58:36.580Z,6.50
2023-03-22T06:01:10.864Z,8.20
2023-03-22T06:03:38.402Z,6.53
2023-03-22T06:06:10.462Z,5.60
2023-03-22T06:08:39.600Z,6.00
2023-03-22T06:11:07.141Z,5.83
2023-03-22T06:13:33.964Z,5.90
2023-03-22T06:16:02.167Z,8.40
2023-03-22T06:18:29.920Z,10.10
2023-03-22T06:20:56.928Z,6.57
2023-03-22T06:23:23.596Z,6.77
2023-03-22T06:25:50.645Z,6.53
2023-03-22T06:28:17.542Z,9.10
2023-03-22T06:30:44.266Z,8.10
2023-03-22T06:33:10.966Z,6.97
2023-03-22T06:35:37.738Z,6.37
2023-03-22T06:38:04.547Z,6.33
2023-03-22T06:40:31.348Z,8.00
2023-03-22T06:42:57.952Z,9.67
2023-03-22T06:45:24.821Z,7.80
2023-03-22T06:47:51.468Z,5.13
2023-03-22T06:50:18.295Z,6.23
2023-03-22T06:52:45.002Z,7.50
2023-03-22T06:55:11.640Z,7.20
2023-03-22T06:57:38.290Z,7.40
2023-03-22T07:00:05.619Z,7.03
2023-03-22T07:02:32.278Z,5.23
2023-03-22T07:04:58.885Z,5.93
2023-03-22T07:07:25.681Z,5.30
2023-03-22T07:09:53.252Z,5.47
2023-03-22T07:12:19.878Z,6.83
2023-03-22T07:14:46.672Z,7.10
2023-03-22T07:17:14.118Z,7.77
2023-03-22T07:19:42.615Z,6.17
2023-03-22T07:22:09.388Z,5.03
2023-03-22T07:24:40.364Z,6.20
2023-03-22T07:27:11.367Z,6.70
2023-03-22T07:29:37.987Z,6.17
2023-03-22T07:32:04.951Z,6.00
2023-03-22T07:34:31.676Z,8.70
2023-03-22T07:36:58.683Z,7.03
2023-03-22T07:39:25.530Z,6.33
2023-03-22T07:41:52.645Z,5.13
2023-03-22T07:44:19.399Z,7.03
2023-03-22T07:46:46.574Z,5.60
2023-03-22T07:49:14.706Z,5.10
2023-03-22T07:51:41.316Z,7.60
2023-03-22T07:54:08.080Z,6.33
2023-03-22T07:56:35.243Z,6.33
2023-03-22T07:59:02.266Z,6.83
2023-03-22T08:01:29.059Z,6.97
2023-03-22T08:03:55.878Z,12.93
2023-03-22T08:06:22.787Z,6.87
2023-03-22T08:08:49.395Z,6.40
2023-03-22T08:11:16.213Z,5.17
2023-03-22T08:13:42.829Z,5.67
2023-03-22T08:16:09.490Z,6.17
2023-03-22T08:18:36.245Z,6.50
2023-03-22T08:21:02.982Z,4.87
2023-03-22T08:23:40.878Z,5.07
2023-03-22T08:26:08.727Z,4.33
2023-03-22T08:28:35.531Z,4.57
2023-03-22T08:31:02.551Z,4.27
2023-03-22T08:33:29.280Z,4.80
2023-03-22T08:36:11.450Z,4.07
2023-03-22T08:38:38.101Z,7.50
2023-03-22T08:41:05.124Z,8.17
2023-03-22T08:43:31.758Z,4.93
2023-03-22T08:45:58.788Z,4.20
2023-03-22T08:48:28.978Z,4.07
2023-03-22T08:50:55.713Z,5.27
2023-03-22T08:53:22.402Z,3.60
2023-03-22T08:55:49.052Z,3.80
2023-03-22T08:58:16.563Z,4.07
2023-03-22T09:00:49.025Z,5.87
2023-03-22T09:03:16.790Z,3.57
2023-03-22T09:05:43.524Z,4.07
2023-03-22T09:08:18.620Z,3.13
2023-03-22T09:10:52.490Z,3.03
2023-03-22T09:13:19.956Z,6.37
2023-03-22T09:15:47.308Z,2.83
2023-03-22T09:18:15.233Z,4.10
2023-03-22T09:20:42.842Z,2.47
2023-03-22T09:23:10.047Z,2.77
2023-03-22T09:25:36.739Z,2.70
2023-03-22T09:28:04.151Z,2.50
2023-03-22T09:30:30.884Z,2.43
2023-03-22T09:32:57.589Z,2.80
2023-03-22T09:35:24.297Z,3.77
2023-03-22T09:37:53.265Z,2.67
2023-03-22T09:40:21.335Z,2.77
2023-03-22T09:42:52.145Z,2.70
2023-03-22T09:45:25.121Z,2.00
2023-03-22T09:47:54.509Z,2.70
2023-03-22T09:50:29.311Z,1.77
2023-03-22T09:52:56.096Z,2.53
2023-03-22T09:55:39.516Z,1.90
2023-03-22T09:58:28.125Z,4.13
2023-03-22T10:01:26.561Z,1.60
2023-03-22T10:03:56.134Z,1.93
2023-03-22T10:06:25.585Z,1.90
2023-03-22T10:08:55.624Z,1.53
2023-03-22T10:11:37.210Z,1.77
2023-03-22T10:14:37.798Z,3.10
2023-03-22T10:17:16.002Z,1.90
2023-03-22T10:20:08.588Z,3.93
2023-03-22T10:22:41.761Z,1.60
2023-03-22T10:25:09.461Z,2.60
2023-03-22T10:27:37.236Z,2.47
2023-03-22T10:30:21.720Z,2.10
2023-03-22T10:33:02.791Z,1.60
2023-03-22T10:35:30.834Z,3.03
2023-03-22T10:38:00.791Z,2.90
2023-03-22T10:40:31.223Z,2.90
2023-03-22T10:43:03.559Z,1.47
2023-03-22T10:45:34.770Z,1.60
2023-03-22T10:48:07.047Z,3.37
2023-03-22T10:50:38.095Z,2.87
2023-03-22T10:53:11.106Z,1.93
2023-03-22T10:55:42.534Z,1.40
2023-03-22T10:58:20.769Z,5.10
2023-03-22T11:00:56.866Z,1.73
2023-03-22T11:03:41.751Z,1.37
2023-03-22T11:06:19.288Z,3.10
2023-03-22T11:08:51.609Z,2.67
2023-03-22T11:11:30.715Z,2.80
2023-03-22T11:14:14.527Z,1.27
2023-03-22T11:17:08.204Z,2.03
2023-03-22T11:19:49.642Z,2.13
2023-03-22T11:22:31.369Z,2.63
2023-03-22T11:24:59.173Z,1.83
2023-03-22T11:27:32.953Z,3.57
2023-03-22T11:30:20.540Z,4.57
2023-03-22T11:32:47.967Z,3.60
2023-03-22T11:35:21.245Z,1.77
2023-03-22T11:37:53.763Z,1.57
2023-03-22T11:40:34.608Z,1.33
2023-03-22T11:43:10.255Z,1.87
2023-03-22T11:45:41.180Z,1.97
2023-03-22T11:48:14.692Z,1.80
2023-03-22T11:50:44.492Z,1.30
2023-03-22T11:53:16.213Z,1.10
2023-03-22T11:55:44.445Z,1.90
2023-03-22T11:58:26.101Z,1.40
2023-03-22T12:00:59.732Z,3.30
2023-03-22T12:03:37.575Z,4.00
2023-03-22T12:06:15.648Z,3.23
2023-03-22T12:08:48.177Z,1.70
2023-03-22T12:11:27.393Z,10.50
2023-03-22T12:14:09.525Z,1.73
2023-03-22T12:16:46.375Z,1.37
2023-03-22T12:19:46.611Z,1.33
2023-03-22T12:22:21.068Z,1.97
2023-03-22T12:24:47.735Z,4.33
2023-03-22T12:27:29.749Z,3.50
2023-03-22T12:30:01.388Z,1.67
2023-03-22T12:32:47.195Z,1.20
2023-03-22T12:35:20.461Z,0.87
2023-03-22T12:37:51.531Z,1.20
2023-03-22T12:40:38.263Z,1.60
2023-03-22T12:43:21.783Z,2.97
2023-03-22T12:45:53.307Z,1.50
2023-03-22T12:48:39.377Z,0.77
2023-03-22T12:51:08.677Z,1.03
2023-03-22T12:53:48.266Z,2.03
2023-03-22T12:56:18.934Z,1.17
2023-03-22T12:58:56.765Z,0.80
2023-03-22T13:01:46.176Z,1.97
2023-03-22T13:04:28.080Z,2.37
2023-03-22T13:06:57.998Z,1.07
2023-03-22T13:09:49.427Z,1.00
2023-03-22T13:12:19.133Z,1.20
2023-03-22T13:14:56.323Z,3.13
2023-03-22T13:17:22.898Z,1.83
2023-03-22T13:20:21.470Z,1.13
2023-03-22T13:22:48.181Z,1.13
2023-03-22T13:25:34.777Z,1.63
2023-03-22T13:28:04.303Z,1.73
2023-03-22T13:30:46.801Z,0.93
2023-03-22T13:33:25.625Z,0.87
2023-03-22T13:36:23.196Z,1.00
2023-03-22T13:38:58.915Z,1.20
2023-03-22T13:41:34.324Z,1.73
2023-03-22T13:44:18.576Z,1.30
2023-03-22T13:46:50.022Z,1.07
2023-03-22T13:49:27.876Z,1.70
2023-03-22T13:51:59.073Z,0.70
2023-03-22T13:54:32.594Z,1.03
2023-03-22T13:57:01.311Z,2.20
2023-03-22T13:59:29.531Z,1.20
2023-03-22T14:02:22.452Z,1.27
2023-03-22T14:04:55.970Z,0.77
2023-03-22T14:07:31.605Z,1.23
2023-03-22T14:10:05.456Z,2.20
2023-03-22T14:13:16.434Z,1.23
2023-03-22T14:15:51.689Z,1.60
2023-03-22T14:18:29.962Z,0.60
2023-03-22T14:21:09.390Z,0.83
